createdAt,value
2023-04-19T00:00:57.365Z,10.49
2023-04-19T00:03:28.073Z,10.49
2023-04-19T00:05:59.274Z,10.45
2023-04-19T00:08:29.361Z,10.41
2023-04-19T00:11:21.194Z,10.39
2023-04-19T00:13:51.715Z,10.35
2023-04-19T00:16:21.876Z,10.33
2023-04-19T00:18:52.766Z,10.32
2023-04-19T00:21:23.791Z,10.28
2023-04-19T00:23:54.191Z,10.26
2023-04-19T00:26:24.571Z,10.25
2023-04-19T00:28:55.286Z,10.25
2023-04-19T00:31:25.668Z,10.24
2023-04-19T00:33:56.750Z,10.21
2023-04-19T00:36:29.324Z,10.19
2023-04-19T00:38:59.444Z,10.17
2023-04-19T00:41:29.563Z,10.15
2023-04-19T00:44:01.318Z,10.13
2023-04-19T00:46:31.661Z,10.11
2023-04-19T00:49:03.395Z,10.09
2023-04-19T00:51:34.953Z,10.07
2023-04-19T00:54:08.556Z,10.04
2023-04-19T00:56:39.896Z,10.00
2023-04-19T00:59:12.072Z,9.97
2023-04-19T01:01:42.446Z,9.93
2023-04-19T01:04:13.079Z,9.94
2023-04-19T01:06:44.260Z,9.89
2023-04-19T01:09:14.176Z,9.89
2023-04-19T01:11:44.713Z,9.87
2023-04-19T01:14:15.519Z,9.84
2023-04-19T01:16:50.468Z,9.80
2023-04-19T01:19:20.995Z,9.76
2023-04-19T01:21:52.347Z,9.74
2023-04-19T01:24:22.886Z,9.71
2023-04-19T01:26:53.593Z,9.67
2023-04-19T01:29:23.525Z,9.66
2023-04-19T01:31:54.160Z,9.64
2023-04-19T01:34:24.583Z,9.59
2023-04-19T01:36:54.885Z,9.56
2023-04-19T01:39:27.890Z,9.50
2023-04-19T01:41:58.221Z,9.43
2023-04-19T01:44:28.728Z,9.41
2023-04-19T01:46:58.874Z,9.38
2023-04-19T01:49:29.380Z,9.37
2023-04-19T01:52:00.339Z,9.36
2023-04-19T01:54:30.630Z,9.35
2023-04-19T01:57:01.157Z,9.35
2023-04-19T01:59:32.298Z,9.32
2023-04-19T02:02:02.536Z,9.30
2023-04-19T02:04:35.412Z,9.28
2023-04-19T02:07:05.733Z,9.27
2023-04-19T02:09:37.925Z,9.23
2023-04-19T02:12:09.870Z,9.23
2023-04-19T02:14:40.385Z,9.21
2023-04-19T02:17:12.560Z,9.19
2023-04-19T02:19:42.871Z,9.18
2023-04-19T02:22:16.481Z,9.15
2023-04-19T02:24:50.478Z,9.13
2023-04-19T02:27:20.821Z,9.12
2023-04-19T02:29:53.586Z,9.08
2023-04-19T02:32:23.748Z,9.07
2023-04-19T02:35:09.386Z,9.03
2023-04-19T02:37:40.322Z,9.00
2023-04-19T02:40:12.474Z,8.97
2023-04-19T02:42:43.423Z,8.93
2023-04-19T02:45:15.181Z,8.91
2023-04-19T02:47:46.360Z,8.88
2023-04-19T02:50:18.234Z,8.87
2023-04-19T02:52:52.047Z,8.83
2023-04-19T02:55:24.027Z,8.81
2023-04-19T02:58:01.531Z,8.78
2023-04-19T03:00:33.321Z,8.76
2023-04-19T03:03:09.448Z,8.74
2023-04-19T03:05:39.680Z,8.71
2023-04-19T03:08:11.630Z,8.66
2023-04-19T03:10:42.367Z,8.62
2023-04-19T03:13:12.689Z,8.60
2023-04-19T03:15:43.669Z,8.55
2023-04-19T03:18:14.586Z,8.55
2023-04-19T03:20:45.494Z,8.53
2023-04-19T03:23:16.223Z,8.50
2023-04-19T03:25:46.568Z,8.47
2023-04-19T03:28:38.587Z,8.45
2023-04-19T03:31:21.458Z,8.41
2023-04-19T03:33:53.348Z,8.39
2023-04-19T03:36:26.749Z,8.36
2023-04-19T03:38:57.065Z,8.33
2023-04-19T03:41:28.030Z,8.33
2023-04-19T03:44:17.798Z,8.31
2023-04-19T03:49:44.647Z,8.25
2023-04-19T03:52:15.784Z,8.26
2023-04-19T03:54:46.101Z,8.24
2023-04-19T03:57:27.893Z,8.26
2023-04-19T03:59:58.634Z,8.26
2023-04-19T04:02:29.240Z,8.27
2023-04-19T04:05:00.293Z,8.29
2023-04-19T04:07:31.031Z,8.29
2023-04-19T04:10:01.846Z,8.31
2023-04-19T04:12:33.931Z,8.34
2023-04-19T04:15:07.741Z,8.35
2023-04-19T04:17:38.790Z,8.39
2023-04-19T04:20:16.073Z,8.45
2023-04-19T04:22:46.269Z,8.46
2023-04-19T04:25:20.569Z,8.50
2023-04-19T04:27:54.112Z,8.54
2023-04-19T04:30:25.849Z,8.57
2023-04-19T04:32:58.885Z,8.58
2023-04-19T04:35:30.195Z,8.59
2023-04-19T04:38:21.564Z,8.62
2023-04-19T04:40:56.639Z,8.64
2023-04-19T04:43:29.352Z,8.65
2023-04-19T04:45:59.615Z,8.70
2023-04-19T04:48:34.780Z,8.72
2023-04-19T04:51:07.570Z,8.75
2023-04-19T04:53:38.503Z,8.80
2023-04-19T04:56:10.888Z,8.82
2023-04-19T04:58:40.992Z,8.87
2023-04-19T05:01:17.009Z,8.91
2023-04-19T05:03:47.603Z,8.97
2023-04-19T05:06:21.391Z,8.99
2023-04-19T05:08:51.706Z,9.03
2023-04-19T05:11:34.356Z,9.08
2023-04-19T05:14:04.838Z,9.14
2023-04-19T05:16:36.022Z,9.19
2023-04-19T05:19:06.508Z,9.23
2023-04-19T05:21:40.518Z,9.28
2023-04-19T05:24:15.960Z,9.32
2023-04-19T05:26:47.545Z,9.36
2023-04-19T05:29:18.855Z,9.41
2023-04-19T05:31:54.122Z,9.47
2023-04-19T05:34:38.087Z,9.52
2023-04-19T05:37:08.470Z,9.59
2023-04-19T05:39:40.210Z,9.67
2023-04-19T05:42:11.970Z,9.73
2023-04-19T05:44:42.299Z,9.79
2023-04-19T05:47:12.423Z,9.86
2023-04-19T05:50:14.515Z,9.94
2023-04-19T05:52:50.349Z,10.04
2023-04-19T05:55:21.483Z,10.11
2023-04-19T05:57:52.190Z,10.18
2023-04-19T06:00:27.921Z,10.26
2023-04-19T06:03:02.295Z,10.34
2023-04-19T06:05:32.843Z,10.45
2023-04-19T06:08:03.409Z,10.52
2023-04-19T06:10:44.517Z,10.62
2023-04-19T06:13:21.795Z,10.71
2023-04-19T06:15:52.372Z,10.82
2023-04-19T06:18:22.456Z,10.90
2023-04-19T06:20:55.021Z,10.99
2023-04-19T06:23:25.140Z,11.08
2023-04-19T06:25:55.676Z,11.21
2023-04-19T06:28:26.211Z,11.30
2023-04-19T06:30:56.930Z,11.44
2023-04-19T06:33:27.453Z,11.56
2023-04-19T06:35:57.772Z,11.66
2023-04-19T06:38:28.298Z,11.79
2023-04-19T06:40:58.621Z,11.91
2023-04-19T06:43:28.948Z,12.02
2023-04-19T06:46:04.144Z,12.12
2023-04-19T06:48:35.359Z,12.24
2023-04-19T06:51:07.492Z,12.32
2023-04-19T06:53:37.813Z,12.45
2023-04-19T06:56:09.726Z,12.57
2023-04-19T06:58:42.145Z,12.70
2023-04-19T07:01:12.736Z,12.81
2023-04-19T07:03:43.356Z,12.94
2023-04-19T07:06:14.136Z,13.06
2023-04-19T07:11:20.244Z,13.17
2023-04-19T07:13:51.658Z,13.25
2023-04-19T07:16:21.805Z,13.37
2023-04-19T07:18:51.906Z,13.46
2023-04-19T07:21:22.213Z,13.54
2023-04-19T07:23:52.551Z,13.67
2023-04-19T07:26:25.524Z,13.76
2023-04-19T07:28:56.696Z,13.92
2023-04-19T07:31:28.143Z,14.09
2023-04-19T07:33:58.745Z,14.20
2023-04-19T07:36:30.297Z,14.33
2023-04-19T07:39:00.619Z,14.43
2023-04-19T07:41:30.943Z,14.57
2023-04-19T07:44:01.475Z,14.70
2023-04-19T07:46:31.869Z,14.79
2023-04-19T07:49:04.482Z,14.89
2023-04-19T07:51:34.893Z,14.98
2023-04-19T07:54:05.028Z,15.03
2023-04-19T07:56:36.525Z,15.15
2023-04-19T07:59:09.684Z,15.24
2023-04-19T08:01:39.970Z,15.29
2023-04-19T08:04:10.774Z,15.38
2023-04-19T08:06:44.799Z,15.50
2023-04-19T08:09:14.800Z,15.58
2023-04-19T08:11:45.467Z,15.64
2023-04-19T08:14:28.400Z,15.73
2023-04-19T08:19:38.579Z,15.83
2023-04-19T08:22:09.292Z,15.90
2023-04-19T08:24:39.027Z,15.95
2023-04-19T08:27:09.322Z,16.01
2023-04-19T08:29:39.453Z,16.08
2023-04-19T08:32:10.040Z,16.14
2023-04-19T08:34:40.732Z,16.23
2023-04-19T08:37:11.025Z,16.28
2023-04-19T08:39:41.142Z,16.35
2023-04-19T08:42:24.837Z,16.41
2023-04-19T08:47:51.990Z,16.57
2023-04-19T08:50:34.334Z,16.72
2023-04-19T08:56:03.529Z,16.94
2023-04-19T08:58:57.050Z,17.03
2023-04-19T09:01:35.368Z,17.14
2023-04-19T09:04:26.377Z,17.28
2023-04-19T09:06:58.102Z,17.43
2023-04-19T09:09:38.772Z,17.59
2023-04-19T09:12:18.781Z,17.71
2023-04-19T09:17:22.155Z,17.85
2023-04-19T09:19:52.252Z,17.95
2023-04-19T09:22:22.981Z,18.08
2023-04-19T09:25:34.010Z,18.14
2023-04-19T09:27:44.738Z,18.22
2023-04-19T09:30:29.997Z,18.34
2023-04-19T09:33:02.692Z,18.42
2023-04-19T09:35:42.914Z,18.42
2023-04-19T09:38:13.249Z,18.37
2023-04-19T09:40:47.190Z,18.35
2023-04-19T09:43:57.537Z,18.37
2023-04-19T09:46:35.684Z,18.37
2023-04-19T09:49:27.885Z,18.29
2023-04-19T09:52:01.046Z,18.24
2023-04-19T09:54:32.390Z,18.32
2023-04-19T09:57:03.340Z,18.33
2023-04-19T09:59:34.061Z,18.32
2023-04-19T10:02:06.869Z,18.29
2023-04-19T10:09:53.650Z,18.28
2023-04-19T10:14:59.226Z,18.29
2023-04-19T10:17:29.690Z,18.34
2023-04-19T10:20:06.258Z,18.35
2023-04-19T10:22:38.920Z,18.38
2023-04-19T10:25:17.089Z,18.44
2023-04-19T10:27:48.598Z,18.45
2023-04-19T10:30:23.421Z,18.41
2023-04-19T10:32:55.697Z,18.50
2023-04-19T10:35:28.841Z,18.57
2023-04-19T10:38:07.217Z,18.58
2023-04-19T10:41:03.424Z,18.58
2023-04-19T10:43:34.840Z,18.60
2023-04-19T10:46:13.716Z,18.57
2023-04-19T10:48:54.069Z,18.51
2023-04-19T10:51:27.396Z,18.50
2023-04-19T10:53:59.199Z,18.50
2023-04-19T10:57:10.878Z,18.51
2023-04-19T10:59:43.729Z,18.52
2023-04-19T11:02:32.201Z,18.50
2023-04-19T11:05:03.863Z,18.45
2023-04-19T11:07:42.462Z,18.42
2023-04-19T11:10:13.487Z,18.35
2023-04-19T11:12:46.811Z,18.26
2023-04-19T11:15:16.748Z,18.23
2023-04-19T11:18:01.017Z,18.18
2023-04-19T11:20:42.947Z,18.16
2023-04-19T11:23:19.029Z,18.15
2023-04-19T11:25:52.630Z,18.12
2023-04-19T11:28:24.194Z,18.12
2023-04-19T11:30:56.791Z,18.12
2023-04-19T11:33:28.307Z,18.08
2023-04-19T11:35:58.429Z,18.06
2023-04-19T11:38:30.395Z,18.06
2023-04-19T11:41:01.732Z,18.07
2023-04-19T11:43:36.588Z,18.10
2023-04-19T11:46:11.893Z,18.14
2023-04-19T11:48:52.800Z,18.17
2023-04-19T11:51:23.316Z,18.21
2023-04-19T11:53:53.653Z,18.25
2023-04-19T11:56:24.366Z,18.24
2023-04-19T11:58:58.914Z,18.19
2023-04-19T12:01:31.806Z,18.22
2023-04-19T12:04:04.710Z,18.27
2023-04-19T12:06:35.078Z,18.30
2023-04-19T12:09:08.879Z,18.33
2023-04-19T12:11:45.787Z,18.38
2023-04-19T12:14:17.808Z,18.42
2023-04-19T12:17:05.577Z,18.45
2023-04-19T12:19:42.413Z,18.44
2023-04-19T12:22:14.376Z,18.45
2023-04-19T12:24:43.800Z,18.45
2023-04-19T12:27:17.513Z,18.43
2023-04-19T12:29:47.926Z,18.42
2023-04-19T12:32:18.653Z,18.43
2023-04-19T12:34:49.392Z,18.44
2023-04-19T12:37:19.532Z,18.42
2023-04-19T12:39:49.830Z,18.40
2023-04-19T12:42:20.146Z,18.37
2023-04-19T12:44:50.677Z,18.34
2023-04-19T12:47:21.023Z,18.32
2023-04-19T12:49:51.112Z,18.29
2023-04-19T12:52:21.852Z,18.26
2023-04-19T12:54:52.581Z,18.22
2023-04-19T12:57:23.942Z,18.19
2023-04-19T12:59:54.467Z,18.17
2023-04-19T13:02:25.124Z,18.13
2023-04-19T13:04:55.852Z,18.10
2023-04-19T13:07:26.243Z,18.08
2023-04-19T13:09:57.191Z,18.06
2023-04-19T13:12:28.383Z,18.03
2023-04-19T13:14:58.860Z,18.06
2023-04-19T13:17:30.217Z,18.07
2023-04-19T13:20:00.524Z,18.08
2023-04-19T13:22:31.046Z,18.09
2023-04-19T13:25:01.179Z,18.08
2023-04-19T13:27:32.513Z,18.07
2023-04-19T13:30:03.244Z,18.05
2023-04-19T13:32:33.239Z,17.99
2023-04-19T13:35:03.684Z,17.96
2023-04-19T13:37:33.808Z,17.92
2023-04-19T13:40:17.929Z,17.85
2023-04-19T13:42:50.232Z,17.81
2023-04-19T13:45:20.751Z,17.76
2023-04-19T13:47:51.913Z,17.70
2023-04-19T13:50:23.238Z,17.67
2023-04-19T13:55:43.137Z,17.53
2023-04-19T13:58:14.214Z,17.48
2023-04-19T14:00:44.419Z,17.41
2023-04-19T14:03:14.717Z,17.35
2023-04-19T14:05:45.496Z,17.28
2023-04-19T14:08:15.778Z,17.23
2023-04-19T14:10:46.527Z,17.17
2023-04-19T14:13:16.630Z,17.07
2023-04-19T14:15:47.380Z,17.03
2023-04-19T14:18:17.524Z,16.94
2023-04-19T14:20:47.832Z,16.88
2023-04-19T14:23:20.175Z,16.74
2023-04-19T14:25:50.947Z,16.57
2023-04-19T14:28:23.973Z,16.44
2023-04-19T14:30:54.425Z,16.35
2023-04-19T14:33:26.301Z,16.25
2023-04-19T14:35:57.523Z,16.16
2023-04-19T14:38:28.285Z,16.08
2023-04-19T14:40:58.217Z,16.02
2023-04-19T14:43:28.706Z,15.94
2023-04-19T14:45:58.868Z,15.84
2023-04-19T14:48:28.798Z,15.77
2023-04-19T14:50:59.056Z,15.70
2023-04-19T14:53:29.390Z,15.64
2023-04-19T14:56:00.121Z,15.59
2023-04-19T14:58:30.836Z,15.52
2023-04-19T15:01:10.235Z,15.48
2023-04-19T15:03:41.400Z,15.46
2023-04-19T15:06:12.051Z,15.38
2023-04-19T15:08:42.779Z,15.29
2023-04-19T15:11:13.101Z,15.22
2023-04-19T15:13:43.236Z,15.20
2023-04-19T15:16:13.783Z,15.13
2023-04-19T15:18:43.817Z,15.06
2023-04-19T15:21:13.984Z,14.99
2023-04-19T15:23:43.897Z,14.98
2023-04-19T15:26:14.222Z,14.92
2023-04-19T15:28:44.750Z,14.88
2023-04-19T15:31:15.942Z,14.80
2023-04-19T15:33:46.424Z,14.75
2023-04-19T15:36:16.943Z,14.70
2023-04-19T15:38:47.281Z,14.65
2023-04-19T15:41:18.828Z,14.62
2023-04-19T15:43:49.555Z,14.58
2023-04-19T15:46:19.894Z,14.56
2023-04-19T15:48:50.407Z,14.52
2023-04-19T15:51:21.144Z,14.47
2023-04-19T15:53:51.700Z,14.44
2023-04-19T15:56:21.580Z,14.43
2023-04-19T15:58:52.105Z,14.41
2023-04-19T16:01:23.292Z,14.37
2023-04-19T16:03:53.641Z,14.33
2023-04-19T16:06:25.539Z,14.31
2023-04-19T16:08:55.652Z,14.28
2023-04-19T16:11:26.639Z,14.28
2023-04-19T16:13:56.709Z,14.25
2023-04-19T16:16:30.507Z,14.24
2023-04-19T16:19:01.681Z,14.22
2023-04-19T16:21:32.382Z,14.21
2023-04-19T16:24:02.370Z,14.19
2023-04-19T16:26:33.038Z,14.16
2023-04-19T16:29:03.358Z,14.14
2023-04-19T16:31:33.684Z,14.09
2023-04-19T16:34:04.225Z,14.06
2023-04-19T16:36:34.533Z,14.04
2023-04-19T16:39:05.668Z,14.01
2023-04-19T16:41:36.197Z,13.97
2023-04-19T16:44:06.544Z,13.89
2023-04-19T16:46:36.859Z,13.77
2023-04-19T16:49:07.200Z,13.64
2023-04-19T16:51:37.497Z,13.56
2023-04-19T16:54:07.813Z,13.48
2023-04-19T16:56:37.936Z,13.40
2023-04-19T16:59:08.251Z,13.30
2023-04-19T17:01:38.429Z,13.24
2023-04-19T17:04:09.559Z,13.22
2023-04-19T17:06:40.456Z,13.16
2023-04-19T17:09:10.772Z,13.13
2023-04-19T17:11:40.899Z,13.10
2023-04-19T17:14:11.219Z,13.09
2023-04-19T17:16:41.543Z,13.10
2023-04-19T17:19:12.064Z,13.10
2023-04-19T17:21:42.593Z,13.09
2023-04-19T17:24:13.329Z,13.08
2023-04-19T17:26:43.647Z,13.06
2023-04-19T17:29:13.972Z,13.05
2023-04-19T17:31:44.777Z,13.01
2023-04-19T17:34:15.640Z,12.96
2023-04-19T17:36:45.763Z,12.91
2023-04-19T17:39:15.646Z,12.85
2023-04-19T17:41:46.611Z,12.81
2023-04-19T17:44:17.545Z,12.79
2023-04-19T17:46:48.099Z,12.74
2023-04-19T17:49:21.661Z,12.70
2023-04-19T17:51:52.814Z,12.66
2023-04-19T17:54:23.756Z,12.64
2023-04-19T17:56:55.308Z,12.58
2023-04-19T17:59:26.035Z,12.54
2023-04-19T18:01:57.307Z,12.52
2023-04-19T18:04:27.845Z,12.46
2023-04-19T18:06:59.062Z,12.42
2023-04-19T18:09:29.623Z,12.39
2023-04-19T18:12:02.360Z,12.35
2023-04-19T18:14:35.138Z,12.28
2023-04-19T18:17:05.883Z,12.25
2023-04-19T18:19:40.039Z,12.20
2023-04-19T18:22:10.822Z,12.15
2023-04-19T18:24:43.206Z,12.11
2023-04-19T18:27:14.128Z,12.07
2023-04-19T18:29:44.658Z,12.02
2023-04-19T18:32:16.236Z,11.99
2023-04-19T18:34:47.354Z,11.97
2023-04-19T18:37:19.517Z,11.94
2023-04-19T18:39:49.838Z,11.93
2023-04-19T18:42:20.770Z,11.89
2023-04-19T18:44:54.234Z,11.88
2023-04-19T18:47:27.252Z,11.85
2023-04-19T18:50:05.176Z,11.83
2023-04-19T18:52:38.781Z,11.81
2023-04-19T18:55:13.316Z,11.80
2023-04-19T18:57:43.808Z,11.77
2023-04-19T19:00:19.609Z,11.77
2023-04-19T19:02:50.977Z,11.76
2023-04-19T19:05:22.078Z,11.73
2023-04-19T19:07:52.815Z,11.72
2023-04-19T19:10:41.281Z,11.68
2023-04-19T19:13:15.454Z,11.67
2023-04-19T19:15:46.203Z,11.67
2023-04-19T19:18:18.126Z,11.65
2023-04-19T19:20:51.260Z,11.65
2023-04-19T19:23:34.689Z,11.65
2023-04-19T19:26:05.927Z,11.65
2023-04-19T19:28:37.877Z,11.65
2023-04-19T19:31:09.255Z,11.63
2023-04-19T19:33:40.870Z,11.62
2023-04-19T19:36:11.459Z,11.63
2023-04-19T19:38:42.834Z,11.61
2023-04-19T21:15:50.857Z,11.78
2023-04-19T21:18:22.372Z,11.77
2023-04-19T21:20:52.899Z,11.72
2023-04-19T21:23:25.269Z,11.70
2023-04-19T21:25:55.589Z,11.68
2023-04-19T21:28:26.325Z,11.67
2023-04-19T21:30:57.269Z,11.65
2023-04-19T21:33:28.816Z,11.63
2023-04-19T21:36:00.366Z,11.61
2023-04-19T21:38:31.714Z,11.58
2023-04-19T21:41:02.046Z,11.55
2023-04-19T21:43:32.371Z,11.53
2023-04-19T21:46:04.578Z,11.51
2023-04-19T21:48:36.144Z,11.49
2023-04-19T21:51:08.377Z,11.46
2023-04-19T21:53:39.184Z,11.44
2023-04-19T21:56:10.325Z,11.41
2023-04-19T21:58:40.658Z,11.39
2023-04-19T22:01:11.021Z,11.37
2023-04-19T22:03:41.471Z,11.35
2023-04-19T22:06:16.687Z,11.31
2023-04-19T22:08:48.082Z,11.28
2023-04-19T22:11:19.635Z,11.25
2023-04-19T22:13:50.177Z,11.22
2023-04-19T22:16:21.118Z,11.19
2023-04-19T22:18:51.257Z,11.16
2023-04-19T22:21:21.535Z,11.13
2023-04-19T22:23:52.089Z,11.10
2023-04-19T22:26:22.588Z,11.08
2023-04-19T22:28:53.948Z,11.05
2023-04-19T22:31:23.858Z,11.00
2023-04-19T22:33:53.768Z,10.99
2023-04-19T22:36:27.771Z,10.96
2023-04-19T22:38:58.916Z,10.93
2023-04-19T22:41:28.824Z,10.89
2023-04-19T22:43:58.952Z,10.88
2023-04-19T22:46:29.292Z,10.87
2023-04-19T22:48:59.173Z,10.83
2023-04-19T22:51:29.851Z,10.81
2023-04-19T22:54:00.232Z,10.79
2023-04-19T22:56:31.582Z,10.77
2023-04-19T22:59:17.064Z,10.75
2023-04-19T23:01:48.217Z,10.70
2023-04-19T23:04:19.511Z,10.65
2023-04-19T23:06:49.665Z,10.60
2023-04-19T23:09:19.993Z,10.55
2023-04-19T23:11:50.113Z,10.51
2023-04-19T23:14:20.227Z,10.50
2023-04-19T23:16:51.980Z,10.49
2023-04-19T23:19:22.799Z,10.48
2023-04-19T23:21:53.452Z,10.48
2023-04-19T23:24:24.997Z,10.50
2023-04-19T23:26:55.122Z,10.51
2023-04-19T23:29:25.848Z,10.50
2023-04-19T23:31:56.991Z,10.50
2023-04-19T23:34:27.325Z,10.48
2023-04-19T23:36:57.455Z,10.49
2023-04-19T23:39:27.555Z,10.49
2023-04-19T23:41:57.670Z,10.47
2023-04-19T23:44:29.840Z,10.48
2023-04-19T23:47:00.052Z,10.46
2023-04-19T23:49:31.300Z,10.43
2023-04-19T23:52:02.443Z,10.41
2023-04-19T23:54:32.360Z,10.40
2023-04-19T23:57:02.676Z,10.39
2023-04-19T23:59:32.800Z,10.36
